航空気象通報

ウインドサーファーのための航空気象通報による風予報です。

4/29-5/1の航空気象通報

2016年04月29日 22時33分37秒 | TAF

羽田空港
TAF RJTT 291106Z 2912/3018 34020KT 9999 FEW030
TEMPO 2912/2914 34020G30KT
BECMG 2917/2919 36010KT
BECMG 3000/3003 16008KT
BECMG 3003/3006 18018KT
日本時間29日21時-30日02時:340度から20ノットの風
但し、29日21-23時の間:ときどき340度から20ノット、突風30ノット
30日02-04時;風が変化
04-09時:360度から10ノットの風
09-12時:風が変化
12時:160度から8ノットの風
12-15時:風が変化
15時-1日03時:180度から18ノットの風

静岡空港
TAF RJNS 291107Z 2912/3018 28008KT 9999 FEW030
BECMG 3003/3006 26018KT
TEMPO 3003/3009 26020G30KT
BECMG 3012/3015 26008KT
日本時間29日21時-30日12時:280度から8ノットの風
12-15時:風が変化
15-21時:260度から18ノットの風
但し、12-18時の間:ときどき260度から20ノット、突風30ノット
21-24時:風が変化
1日00-03時:260度から8ノットの風

福岡空港
TAF RJFF 291106Z 2912/3018 30004KT 9999 FEW035
BECMG 2912/2914 14006KT
BECMG 3000/3003 30011KT
BECMG 3009/3012 16005KT
日本時間29日21時:300度から4ノットの風
21-23時:風が変化
23時-30日09時:140度から6ノットの風
09-12時:風が変化
12-18時:300度から11ノットの風
18-21時:風が変化
21時-1日03時:160度から5ノットの風

那覇空港
TAF ROAH 291105Z 2912/3018 01006KT 9999 FEW025
BECMG 3000/3003 13004KT
日本時間29日21時-30日09時:010度から6ノットの風
09-12時:風が変化
12時-1日03時:130度から4ノットの風

石垣空港
TAF ROIG 291107Z 2912/3018 05006KT 9999 FEW025
日本時間29日21時-1日03時:050度から6ノットの風

マウイのカフルイ空港
PHOG 291140Z 2912/3012 08008G18KT P6SM FEW060
FM292000 06016G24KT P6SM FEW035 SCT060
FM300800 06010G20KT P6SM VCSH SCT030 BKN050
ハワイ時間29日02-10時:080度から8ノット、突風18ノット
10-22時:060度から16ノット、突風24ノット

22時-30日02時:060度から10ノット、突風20ノット

サイパン空港
TAF PGSN 291120Z 2912/3012 10008KT P6SM VCSH SCT014 SCT050 BKN100
マリアナ時間29日22時-30日22時:100度から8ノットの風

コメント

4/28-4/30の航空気象通報

2016年04月28日 22時29分33秒 | TAF

羽田空港
TAF RJTT 281105Z 2812/2918 35006KT 6000 FEW008 BKN012
TEMPO 2812/2815 3000 -RA BR FEW003 BKN005
BECMG 2822/2824 34018KT
TEMPO 2903/2909 34025G35KT
日本時間28日21時-29日07時:350度から6ノットの風
07-09時:風が変化
09時-30日03時:340度から18ノットの風
但し、29日12-18時の間:ときどき340度から25ノット、突風35ノット

但し、28日21-24時の間:ときどき

静岡空港
TAF RJNS 281105Z 2812/2918 27016KT 9999 FEW020
TEMPO 2900/2909 27020G30KT
日本時間28日21時-30日03時:270度から16ノットの風
但し、29日09-18時の間:ときどき270度から20ノット、突風30ノット

福岡空港
TAF RJFF 281105Z 2812/2918 36013KT 9999 FEW010 SCT020 BKN030
BECMG 2815/2817 35003KT
BECMG 2900/2903 33013KT
BECMG 2909/2912 14007KT
日本時間28日21-24時:360度から13ノットの風
00-02時:風が変化
29日02-09時:350度から3ノットの風
09-12時:風が変化
12-18時:330度から13ノットの風
18-21時:風が変化
21時-30日03時:140度から7ノットの風

那覇空港
TAF ROAH 281105Z 2812/2918 33020KT 9999 FEW020 SCT035
BECMG 2909/2912 35010KT
日本時間28日22時-29日18時:330度から20ノットの風
18-21時:風が変化
21時-30日03時:350度から10ノットの風

石垣空港
TAF ROIG 281108Z 2812/2918 01014KT 9999 FEW025 SCT045
日本時間28日21時-30日03時:010度から14ノットの風

マウイのカフルイ空港
PHOG 281138Z 2812/2912 07012KT P6SM VCSH SCT025 BKN050
TEMPO 2812/2816 07012G20KT
FM281600 07010G20KT P6SM FEW030 SCT050
FM282100 07015G25KT P6SM FEW030 SCT050
FM290600 07010G20KT P6SM FEW030 SCT050
TEMPO 2909/2912 07010KT
ハワイ時間28日02-06時:070度から12ノットの風
但し、02-06時の間:ときどき070度から12ノット、突風20ノット

06-11時:070度から10ノット、突風20ノット
11-20時:070度から15ノット、突風25ノット
20時-29日02時:070度から10ノット、突風20ノット

サイパン空港
TAF PGSN 281123Z 2812/2912 11006KT P6SM FEW020
マリアナ時間28日22時-29日22時:110度から6ノットの風

コメント

4/27-4/29の航空気象通報

2016年04月27日 23時25分01秒 | TAF

羽田空港
TAF RJTT 271106Z 2712/2818 09008KT 8000 FEW010 BKN020
BECMG 2716/2718 4000 -RA BR FEW005 BKN008
BECMG 2720/2722 04010KT
TEMPO 2721/2803 3000 RA BR FEW003 BKN005
BECMG 2806/2809 30006KT 9999 NSW FEW008 BKN015
TEMPO 2815/2818 4000 SHRA BR FEW005 BKN008
日本時間27日21時-28日05時:090度から8ノットの風
05-07時:風が変化
07-15時:040度から10ノットの風
15-18時:風が変化
18時-29日03時:300度から6ノットの風
、28日01-03時の後、
28日15-18時の後、

静岡空港
TAF RJNS 271115Z 2712/2818 05008KT 6000 -RA FEW003 BKN020
TEMPO 2712/2721 3000 RA BR FEW003 BKN005
TEMPO 2721/2724 FEW005 BKN008
TEMPO 2806/2809 3000 BR FEW003 BKN005
BECMG 2809/2812 25013KT
TEMPO 2809/2812 FEW003 BKN005
日本時間27日21時-28日18時:050度から8ノットの風
18-21時:風が変化
21時-29日03時:250度から13ノットの風

福岡空港
TAF RJFF 271107Z 2712/2818 33005KT 8000 -SHRA FEW005 SCT008 BKN010
TEMPO 2712/2714 3000 SHRA BR FEW005 BKN008 BKN015
BECMG 2713/2715 17003KT
BECMG 2719/2721 34015KT
TEMPO 2719/2724 4000 -SHRA BR FEW005 BKN008 BKN015
TEMPO 2803/2809 36015G25KT
日本時間27日21-22時:330度から5ノットの風
22-24時:風が変化
28日00-04時:170度から3ノットの風
04-06時:風が変化
06時-29日03時:340度から15ノットの風
但し、28日12-18時の間:ときどき360度から15ノット、突風25ノット

那覇空港
TAF AMD ROAH 271353Z 2713/2818 34017KT 9999 SCT008 BKN015
TEMPO 2713/2717 2000 +TSRA FEW006 BKN008 SCT020CB
日本時間27日22時-29日03時:340度から17ノットの風

但し、27日22時-28日02時の間:ときどき

石垣空港
TAF ROIG 271109Z 2712/2818 36012KT 9999 FEW010 BKN040
TEMPO 2712/2715 3000 TSRA FEW006 BKN010 SCT020CB
日本時間27日21時-29日03時:360度から12ノットの風

但し、27日21-24時の間:ときどき

マウイのカフルイ空港
PHOG 271126Z 2712/2812 06012KT P6SM VCSH FEW030 SCT050
FM272000 06020G30KT P6SM FEW030 SCT050
FM280500 06014G22KT P6SM VCSH FEW030 SCT050 AMD LTD TO VIS AND WIND TIL 271600
ハワイ時間27日02-10時:060度から12ノットの風
10-19時:060度から20ノット、突風30ノット
19時-28日02時:060度から14ノット、突風22ノット

サイパン空港
TAF PGSN 271120Z 2712/2812 09008KT P6SM FEW022 SCT050
マリアナ時間27日22時-29日22時:090度から8ノットの風

コメント

4/26-4/28の航空気象通報

2016年04月27日 00時23分41秒 | TAF

羽田空港
TAF RJTT 261105Z 2612/2718 18006KT 9999 FEW025 SCT050
BECMG 2621/2623 08010KT
BECMG 2712/2715 02012KT
日本時間26日21時-27日06時:180度から6ノットの風
06-08時;風が変化
08-21時:080度から10ノットの風
21-24時:風が変化
28日00-03時:020度から12ノットの風

静岡空港
TAF RJNS 261105Z 2612/2718 30005KT 9999 FEW010 SCT020
BECMG 2622/2624 12006KT
日本時間26日21時-27日07時:300度から5ノットの風
07-09時:風が変化
09時-28日03時:120度から6ノットの風

福岡空港
TAF RJFF 261111Z 2612/2718 36005KT 6000 -RA FEW010 SCT015 BKN025
TEMPO 2612/2618 3000 RA BR
BECMG 2613/2615 11005KT
TEMPO 2618/2624 4000 -RA BR
TEMPO 2700/2709 3000 SHRA BR FEW005 BKN008 BKN015
TEMPO 2709/2718 4000 -SHRA BR
日本時間26日21-22時:360度から5ノットの風
22-24時:風が変化
27日00時-28日03時:110度から5ノットの風

那覇空港
TAF ROAH 261105Z 2612/2718 18008KT 9999 FEW008 BKN010
TEMPO 2618/2624 SCT003 BKN006
TEMPO 2709/2715 3000 TSRA FEW006 BKN010 FEW020CB
BECMG 2712/2715 32008KT
日本時間26日21時-27日21時:180度から8ノットの風
21-24時:風が変化
28日00-03時:320度から8ノットの風

但し、27日18-24時の間:ときどき

石垣空港
TAF ROIG 261109Z 2612/2718 20010KT 9999 FEW007 SCT010
TEMPO 2618/2624 FEW005 BKN008
BECMG 2712/2715 36010KT
TEMPO 2712/2715 4000 SHRA FEW006 BKN010 FEW020CB
日本時間26日21時-27日21時:200度から10ノットの風
21-24時:風が変化
28日00-03時:360度から10ノットの風

但し、27日03-09時の間:ときどき
但し、27日21-24時の間:ときどき

マウイのカフルイ空港
PHOG 261137Z 2612/2712 05010KT P6SM FEW030 BKN050
FM262000 06019G26KT P6SM FEW030 SCT050
FM270500 06011G18KT P6SM FEW030 SCT050
ハワイ時間26日02-10時:050度から10ノットの風

10-19時:060度から19ノット、突風26ノット
19時-27日02時:060度から11ノット、突風18ノット

サイパン空港
TAF PGSN 261130Z 2612/2712 10009KT P6SM FEW020
FM270100 09016KT P6SM VCSH SCT022
マリアナ時間26日22時-27日11時:100度から9ノットの風
11-22時:090度から16ノットの風

コメント

4/25-4/27の航空気象通報

2016年04月25日 20時48分50秒 | TAF
羽田空港
TAF RJTT 251105Z 2512/2618 13006KT 9999 FEW015 BKN025
BECMG 2516/2518 03004KT
BECMG 2603/2606 18010KT
日本時間25日21時-26日01時:130度から6ノットの風
01-03時:風が変化
03-12時:030度から4ノットの風
12-15時:風が変化
15時-27日03時:180度から10ノットの風


静岡空港
TAF RJNS 251105Z 2512/2618 34004KT 9999 FEW020
BECMG 2600/2603 16009KT
BECMG 2609/2612 27006KT
日本時間25日21時-26日09時:340度から4ノットの風
09-12時:風が変化
12-18時:160度から9ノットの風
18-21時:風が変化
21時-27日03時:270度から6ノットの風


福岡空港
TAF RJFF 251107Z 2512/2618 14004KT 9999 FEW030 SCT045
BECMG 2600/2603 36007KT
BECMG 2612/2615 14003KT
日本時間25日21時-26日09時:140度から4ノットの風
09-12時:風が変化
12-21時:360度から7ノットの風
21-24時:風が変化
27日00-03時:140度から3ノットの風


那覇空港
TAF ROAH 251108Z 2512/2618 18007KT 9999 SCT010 BKN015
TEMPO 2515/2521 FEW006 BKN008
日本時間25日21時-27日03時:180度から7ノットの風


石垣空港
TAF ROIG 251113Z 2512/2618 26003KT 9999 FEW008 SCT015
TEMPO 2515/2524 FEW006 BKN008
BECMG 2600/2603 20013KT
日本時間25日21時-26日09時:260度から3ノットの風
09-12時:風が変化
12時-27日03時:200度から13ノットの風

但し、26日00-09時の間:ときどき

マウイのカフルイ空港
PHOG 251138Z 2512/2612 07010KT P6SM FEW020 SCT050
FM252000 07020G28KT P6SM FEW030 SCT050
FM260600 07012KT P6SM SCT030 SCT050
TEMPO 2606/2610 07012G18KT AMD LTD TO VIS AND WIND TIL 251600
ハワイ時間25日02-10時:070度から10ノットの風
10-20時:070度から10ノット、突風28ノット
20時-26日02時:070度から12ノットの風
但し、25日20-24時の間:ときどき070度から12ノット、突風18ノット


サイパン空港
TAF PGSN 251120Z 2512/2612 08014KT P6SM VCSH SCT016 SCT045 BKN110
TEMPO 2512/2516 09015G22KT 4SM SHRA BKN016 BKN040
FM252200 09016KT P6SM VCSH SCT020 BKN050
マリアナ時間25日22時-26日08時:080度から14ノットの風

但し、25日22時-26日02時の間:ときどき090度から15ノット、突風22ノット、
08-22時:090度から16ノットの風
コメント